Time;durP1;ratioP1;P1;durP2;ratioP2;P2;SDS_P1;SDS_P2;PMS_P1;PMS_P2;Temp;Humidity;BMP_temperature;BMP_pressure;BME280_temperature;BME280_humidity;BME280_pressure;Samples;Min_cycle;Max_cycle;Signal;HPM_P1;HPM_P2
2022/08/10 00:01:07;;;;;;;5.68;4.90;;;;;;;15.44;100.00;102743.13;2047422;28;41497;-75
2022/08/10 00:02:09;;;;;;;6.78;5.03;;;;;;;15.40;100.00;102738.69;2047996;28;36363;-75
2022/08/10 00:03:10;;;;;;;6.35;5.35;;;;;;;15.40;100.00;102736.00;2047986;28;26854;-77
2022/08/10 00:04:12;;;;;;;8.43;5.47;;;;;;;15.41;100.00;102743.16;2048050;28;38841;-77
2022/08/10 00:05:17;;;;;;;6.07;4.82;;;;;;;15.38;100.00;102737.78;2048143;28;20889;-76
2022/08/10 00:06:20;;;;;;;7.32;5.22;;;;;;;15.39;100.00;102745.00;2040016;29;31133;-76
2022/08/10 00:07:21;;;;;;;7.68;5.78;;;;;;;15.36;100.00;102742.31;2031781;28;30884;-76
2022/08/10 00:08:28;;;;;;;6.93;5.90;;;;;;;15.37;100.00;102733.31;2047916;28;22307;-76
2022/08/10 00:09:32;;;;;;;7.15;5.20;;;;;;;15.36;100.00;102734.22;2047775;28;20047;-76
2022/08/10 00:10:37;;;;;;;5.47;4.97;;;;;;;15.34;100.00;102738.75;2048327;28;20983;-76
2022/08/10 00:11:39;;;;;;;6.47;4.93;;;;;;;15.33;100.00;102737.88;2047291;28;38395;-76
2022/08/10 00:12:42;;;;;;;9.23;5.57;;;;;;;15.31;100.00;102739.72;2047283;28;29956;-76
2022/08/10 00:13:55;;;;;;;9.68;5.50;;;;;;;15.27;100.00;102736.16;2048302;28;28267;-76
2022/08/10 00:14:58;;;;;;;5.55;5.05;;;;;;;15.30;100.00;102739.72;2047623;28;36452;-75
2022/08/10 00:16:01;;;;;;;5.68;4.60;;;;;;;15.22;100.00;102734.44;2048429;28;24598;-76
2022/08/10 00:17:03;;;;;;;6.50;4.93;;;;;;;15.19;100.00;102735.34;2048917;28;20130;-76
2022/08/10 00:18:05;;;;;;;6.93;5.07;;;;;;;15.15;100.00;102738.13;2048062;28;27754;-77
2022/08/10 00:19:07;;;;;;;6.95;5.15;;;;;;;15.18;100.00;102739.00;2047992;28;23033;-76
2022/08/10 00:20:12;;;;;;;7.15;5.03;;;;;;;15.19;100.00;102740.75;2047545;28;37609;-76
2022/08/10 00:21:14;;;;;;;6.70;5.40;;;;;;;15.16;100.00;102735.38;2047612;28;25250;-76
2022/08/10 00:22:15;;;;;;;7.38;6.03;;;;;;;15.20;100.00;102739.84;2039976;28;26710;-76
2022/08/10 00:23:18;;;;;;;7.25;5.20;;;;;;;15.16;100.00;102730.00;2047553;28;30676;-75
2022/08/10 00:24:19;;;;;;;6.60;5.38;;;;;;;15.15;100.00;102733.63;2047552;28;26638;-76
2022/08/10 00:25:24;;;;;;;6.18;5.57;;;;;;;15.16;100.00;102731.81;2047243;28;32368;-75
2022/08/10 00:26:26;;;;;;;6.18;4.43;;;;;;;15.12;100.00;102730.97;2047497;28;27327;-75
2022/08/10 00:27:48;;;;;;;5.88;5.18;;;;;;;15.10;100.00;102732.78;2050777;28;20043;-75
2022/08/10 00:28:53;;;;;;;6.10;5.45;;;;;;;15.08;100.00;102731.91;2048175;28;20817;-75
2022/08/10 00:29:55;;;;;;;6.57;5.40;;;;;;;15.07;100.00;102736.44;2047217;28;27132;-75
2022/08/10 00:31:01;;;;;;;8.40;5.40;;;;;;;15.02;100.00;102740.06;2047279;28;34744;-75
2022/08/10 00:32:06;;;;;;;7.07;4.75;;;;;;;14.98;100.00;102732.94;2039960;28;24586;-75
2022/08/10 00:33:07;;;;;;;8.23;4.50;;;;;;;14.98;100.00;102735.63;2048610;28;31873;-75
2022/08/10 00:34:09;;;;;;;7.25;5.57;;;;;;;14.98;100.00;102724.84;2055089;28;21024;-75
2022/08/10 00:35:13;;;;;;;7.60;5.65;;;;;;;14.99;100.00;102726.66;2047994;28;21820;-75
2022/08/10 00:36:15;;;;;;;6.20;5.63;;;;;;;14.99;100.00;102732.03;2047648;28;27443;-76
2022/08/10 00:37:18;;;;;;;7.97;4.70;;;;;;;14.99;100.00;102737.44;2048319;28;25713;-76
2022/08/10 00:38:19;;;;;;;7.38;5.55;;;;;;;14.98;100.00;102731.13;2046950;28;30720;-76
2022/08/10 00:39:22;;;;;;;7.95;5.63;;;;;;;14.94;100.00;102726.69;2048179;28;20258;-76
2022/08/10 00:40:25;;;;;;;7.55;5.38;;;;;;;14.99;100.00;102732.03;2047914;28;26206;-76
2022/08/10 00:41:36;;;;;;;7.22;5.65;;;;;;;14.94;100.00;102733.91;2048099;28;34334;-76
2022/08/10 00:42:38;;;;;;;6.50;5.68;;;;;;;14.94;100.00;102736.59;2047803;28;32804;-75
2022/08/10 00:43:39;;;;;;;8.57;5.55;;;;;;;14.95;100.00;102733.88;2048213;28;32100;-75
2022/08/10 00:44:52;;;;;;;8.10;5.57;;;;;;;14.93;100.00;102729.41;2047322;28;31465;-75
2022/08/10 00:45:54;;;;;;;8.45;5.82;;;;;;;14.92;100.00;102728.50;2047411;28;29977;-75
2022/08/10 00:47:00;;;;;;;8.60;6.05;;;;;;;14.89;100.00;102732.16;2047268;28;29788;-75
2022/08/10 00:48:03;;;;;;;7.55;5.68;;;;;;;14.88;100.00;102730.34;2047799;28;23615;-75
2022/08/10 00:49:05;;;;;;;7.30;4.70;;;;;;;14.86;100.00;102729.50;2047196;28;24849;-75
2022/08/10 00:50:08;;;;;;;6.25;5.13;;;;;;;14.84;100.00;102734.00;2039213;28;32545;-75
2022/08/10 00:51:10;;;;;;;6.70;5.78;;;;;;;14.86;100.00;102731.31;2046864;28;35818;-76
2022/08/10 00:52:13;;;;;;;6.60;5.82;;;;;;;14.86;100.00;102737.59;2047799;28;24582;-76
2022/08/10 00:53:15;;;;;;;8.55;6.00;;;;;;;14.86;100.00;102732.19;2047635;28;33558;-75
2022/08/10 00:54:17;;;;;;;6.03;5.38;;;;;;;14.81;100.00;102734.03;2047967;28;24931;-76
2022/08/10 00:55:25;;;;;;;9.60;5.45;;;;;;;14.85;100.00;102740.28;2039332;29;23377;-76
2022/08/10 00:56:29;;;;;;;7.10;5.53;;;;;;;14.82;100.00;102738.53;2040139;28;34735;-76
2022/08/10 00:57:37;;;;;;;7.20;6.07;;;;;;;14.79;100.00;102738.56;2055368;28;20106;-76
2022/08/10 00:58:39;;;;;;;6.57;5.95;;;;;;;14.81;100.00;102739.44;2054364;28;28190;-76
2022/08/10 00:59:41;;;;;;;7.40;5.70;;;;;;;14.78;100.00;102736.75;2046394;28;39716;-76
2022/08/10 01:01:00;;;;;;;5.70;5.20;;;;;;;14.82;100.00;102735.84;2047030;28;32152;-76
2022/08/10 01:02:02;;;;;;;7.40;5.57;;;;;;;14.77;100.00;102743.09;2055005;28;27057;-76
2022/08/10 01:03:11;;;;;;;7.40;5.50;;;;;;;14.77;100.00;102736.78;2047819;28;20162;-76
2022/08/10 01:04:15;;;;;;;6.28;5.68;;;;;;;14.78;100.00;102742.16;2048920;28;20067;-76
2022/08/10 01:05:46;;;;;;;5.75;5.03;;;;;;;14.76;100.00;102741.28;2055371;28;20046;-76
2022/08/10 01:07:39;;;;;;;8.23;5.50;;;;;;;14.73;100.00;102740.44;2053723;28;23692;-76
2022/08/10 01:09:32;;;;;;;7.72;5.88;;;;;;;14.72;100.00;102739.53;2054974;28;27265;-75
2022/08/10 01:10:48;;;;;;;9.38;6.07;;;;;;;14.70;100.00;102733.28;2049455;28;20940;-76
2022/08/10 01:12:15;;;;;;;6.22;5.25;;;;;;;14.68;100.00;102727.03;2046869;28;29894;-76
2022/08/10 01:13:50;;;;;;;8.25;5.28;;;;;;;14.60;100.00;102736.97;2046057;28;20932;-76
2022/08/10 01:15:09;;;;;;;6.55;5.63;;;;;;;14.59;100.00;102735.19;2054560;28;27176;-76
2022/08/10 01:16:20;;;;;;;8.20;5.60;;;;;;;14.54;100.00;102734.34;2051267;28;29788;-76
2022/08/10 01:17:50;;;;;;;6.55;5.72;;;;;;;14.56;100.00;102738.78;2047274;28;31972;-76
2022/08/10 01:19:08;;;;;;;6.35;5.70;;;;;;;14.58;100.00;102730.72;2047800;28;20154;-76
2022/08/10 01:20:41;;;;;;;6.72;5.55;;;;;;;14.50;100.00;102737.06;2046952;28;35258;-75
2022/08/10 01:21:54;;;;;;;7.68;5.10;;;;;;;14.47;100.00;102730.81;2048170;28;21022;-75
2022/08/10 01:23:40;;;;;;;8.30;5.10;;;;;;;14.43;100.00;102729.06;2046891;28;33036;-75
2022/08/10 01:25:10;;;;;;;7.78;5.72;;;;;;;14.39;100.00;102725.50;2047552;28;38726;-75
2022/08/10 01:27:03;;;;;;;5.53;4.97;;;;;;;14.38;100.00;102733.59;2038369;29;37117;-75
2022/08/10 01:28:50;;;;;;;6.82;6.00;;;;;;;14.37;100.00;102735.38;2045529;28;28218;-76
2022/08/10 01:29:59;;;;;;;6.00;5.40;;;;;;;14.37;100.00;102723.72;2054981;28;23790;-76
2022/08/10 01:31:04;;;;;;;8.57;6.28;;;;;;;14.43;100.00;102721.84;2054398;28;37271;-76
2022/08/10 01:32:09;;;;;;;7.63;5.82;;;;;;;14.37;100.00;102721.91;2053958;28;31306;-75
2022/08/10 01:33:46;;;;;;;7.53;5.78;;;;;;;14.35;100.00;102726.41;2047127;28;32993;-75
2022/08/10 01:35:48;;;;;;;8.57;5.78;;;;;;;14.35;100.00;102728.22;2045719;28;23815;-76
2022/08/10 01:36:58;;;;;;;;;;;;;;;14.32;100.00;102729.16;2054924;28;35424;-76
2022/08/10 01:38:18;;;;;;;8.10;5.85;;;;;;;14.29;100.00;102723.78;2053792;28;39475;-77
2022/08/10 01:39:27;;;;;;;;;;;;;;;14.23;100.00;102724.75;2047402;28;29151;-76
2022/08/10 01:40:34;;;;;;;7.05;6.10;;;;;;;14.25;100.00;102719.34;2042057;28;27425;-75
2022/08/10 01:41:42;;;;;;;7.30;5.97;;;;;;;14.27;100.00;102720.22;2048285;28;20036;-76
2022/08/10 01:42:50;;;;;;;7.28;6.05;;;;;;;14.24;100.00;102720.25;2046957;28;26625;-76
2022/08/10 01:44:13;;;;;;;7.05;5.57;;;;;;;14.20;100.00;102723.88;2048754;28;29089;-76
2022/08/10 01:45:19;;;;;;;6.13;5.43;;;;;;;14.16;100.00;102719.41;2051727;28;24852;-76
2022/08/10 01:46:25;;;;;;;6.18;5.47;;;;;;;14.12;100.00;102722.16;2046890;28;26733;-76
2022/08/10 01:48:57;;;;;;;7.85;4.55;;;;;;;14.04;100.00;102726.72;2050288;28;41595;-76
2022/08/10 01:50:08;;;;;;;9.90;5.15;;;;;;;14.01;100.00;102729.41;2046408;28;38974;-76
2022/08/10 01:51:22;;;;;;;7.13;5.25;;;;;;;13.99;100.00;102727.66;2049271;28;20211;-76
2022/08/10 01:52:26;;;;;;;6.22;5.07;;;;;;;13.97;100.00;102726.78;2047404;28;24913;-76
2022/08/10 01:54:02;;;;;;;6.57;4.85;;;;;;;13.94;100.00;102716.91;2040956;28;20894;-75
2022/08/10 01:55:05;;;;;;;6.82;4.40;;;;;;;13.89;100.00;102716.97;2047388;28;30515;-76
2022/08/10 01:56:14;;;;;;;4.22;3.85;;;;;;;13.88;100.00;102719.66;2046629;28;27920;-76
2022/08/10 01:57:16;;;;;;;5.68;5.10;;;;;;;13.87;100.00;102726.88;2040244;28;25881;-76
2022/08/10 01:58:19;;;;;;;6.30;5.13;;;;;;;13.87;100.00;102723.25;2047154;28;28656;-76
2022/08/10 01:59:37;;;;;;;6.40;5.55;;;;;;;13.85;100.00;102717.00;2046883;28;26117;-76
2022/08/10 02:00:42;;;;;;;5.95;4.97;;;;;;;13.83;100.00;102726.88;2041771;28;20106;-76
2022/08/10 02:01:49;;;;;;;5.70;5.10;;;;;;;13.80;100.00;102719.75;2049016;28;20960;-76
2022/08/10 02:02:52;;;;;;;6.63;5.32;;;;;;;13.78;100.00;102715.25;2055051;28;25861;-76
2022/08/10 02:04:04;;;;;;;6.93;5.55;;;;;;;13.78;100.00;102718.81;2054441;28;30374;-76
2022/08/10 02:05:08;;;;;;;6.93;5.22;;;;;;;13.79;100.00;102723.31;2046405;28;29252;-76
2022/08/10 02:06:13;;;;;;;8.30;5.57;;;;;;;13.77;100.00;102718.88;2046597;28;33592;-76
2022/08/10 02:07:20;;;;;;;6.35;5.40;;;;;;;13.73;100.00;102724.28;2046566;28;32306;-76
2022/08/10 02:08:25;;;;;;;7.75;6.43;;;;;;;13.79;100.00;102722.44;2040428;28;20095;-76
2022/08/10 02:09:39;;;;;;;7.38;5.47;;;;;;;13.74;100.00;102720.66;2048496;28;20043;-76
2022/08/10 02:10:44;;;;;;;6.65;6.03;;;;;;;13.76;100.00;102717.94;2046874;28;28629;-76
2022/08/10 02:11:49;;;;;;;5.68;5.18;;;;;;;13.72;100.00;102725.16;2048071;28;24480;-76
2022/08/10 02:12:58;;;;;;;7.25;5.85;;;;;;;13.72;100.00;102722.47;2053306;28;33951;-76
2022/08/10 02:14:01;;;;;;;8.70;5.78;;;;;;;13.72;100.00;102718.88;2046602;28;26579;-77
2022/08/10 02:15:09;;;;;;;6.95;5.93;;;;;;;13.71;100.00;102720.69;2040012;28;20088;-75
2022/08/10 02:16:13;;;;;;;10.73;6.15;;;;;;;13.68;100.00;102719.81;2039719;28;31599;-76
2022/08/10 02:17:26;;;;;;;7.35;6.00;;;;;;;13.70;100.00;102723.41;2039428;28;24829;-76
2022/08/10 02:18:51;;;;;;;8.20;5.60;;;;;;;13.67;100.00;102723.41;2051640;28;20158;-76
2022/08/10 02:19:55;;;;;;;7.95;6.57;;;;;;;13.71;100.00;102728.78;2046198;28;31785;-77
2022/08/10 02:21:00;;;;;;;9.45;6.97;;;;;;;13.65;100.00;102736.88;2046649;28;29100;-77
2022/08/10 02:22:05;;;;;;;7.40;6.43;;;;;;;13.63;100.00;102727.91;2047187;28;24437;-77
2022/08/10 02:23:31;;;;;;;8.60;6.43;;;;;;;13.63;100.00;102727.03;2047164;28;20052;-77
2022/08/10 02:24:35;;;;;;;6.63;5.93;;;;;;;13.61;100.00;102736.94;2043185;28;26716;-77
2022/08/10 02:25:39;;;;;;;7.75;6.25;;;;;;;13.60;100.00;102738.69;2047620;28;29091;-77
2022/08/10 02:26:45;;;;;;;10.02;7.47;;;;;;;13.64;100.00;102731.50;2053901;28;23635;-77
2022/08/10 02:27:50;;;;;;;9.20;8.25;;;;;;;13.67;100.00;102735.06;2046704;28;24001;-77
2022/08/10 02:28:53;;;;;;;8.45;6.93;;;;;;;13.67;100.00;102740.44;2031357;29;23103;-77
2022/08/10 02:29:56;;;;;;;9.10;7.47;;;;;;;13.69;100.00;102727.91;2039988;28;33535;-77
2022/08/10 02:31:14;;;;;;;12.70;8.32;;;;;;;13.71;100.00;102735.94;2046697;28;22617;-77
2022/08/10 02:32:18;;;;;;;8.60;7.70;;;;;;;13.71;100.00;102735.94;2048812;28;37376;-77
2022/08/10 02:33:26;;;;;;;12.13;8.32;;;;;;;13.78;100.00;102726.03;2052896;28;30721;-77
2022/08/10 02:34:33;;;;;;;8.77;7.80;;;;;;;13.72;100.00;102724.28;2046602;28;20040;-77
2022/08/10 02:35:37;;;;;;;10.43;8.13;;;;;;;13.72;100.00;102729.66;2039927;28;26351;-75
2022/08/10 02:36:50;;;;;;;11.30;8.10;;;;;;;13.71;100.00;102731.47;2047367;28;24037;-76
2022/08/10 02:38:02;;;;;;;10.57;8.65;;;;;;;13.77;100.00;102729.63;2046733;28;30657;-79
2022/08/10 02:39:06;;;;;;;12.52;7.82;;;;;;;13.71;100.00;102726.09;2040667;28;38289;-76
2022/08/10 02:40:09;;;;;;;11.02;8.63;;;;;;;13.71;100.00;102730.56;2040871;28;20046;-78
2022/08/10 02:41:49;;;;;;;11.32;8.82;;;;;;;13.75;100.00;102724.25;2049919;28;20035;-77
2022/08/10 02:43:52;;;;;;;10.60;7.88;;;;;;;13.67;100.00;102724.28;2047132;28;20070;-77
2022/08/10 02:45:27;;;;;;;8.48;7.45;;;;;;;13.65;100.00;102726.09;2047406;28;20048;-77
2022/08/10 02:46:45;;;;;;;11.07;8.20;;;;;;;13.67;100.00;102718.03;2046067;28;32990;-78
2022/08/10 02:47:57;;;;;;;9.52;7.15;;;;;;;13.59;100.00;102725.28;2040504;28;20099;-78
2022/08/10 02:49:04;;;;;;;9.05;7.80;;;;;;;13.59;100.00;102722.59;2049524;28;28409;-78
2022/08/10 02:50:33;;;;;;;9.25;7.40;;;;;;;13.59;100.00;102726.16;2046570;28;39938;-77
2022/08/10 02:51:57;;;;;;;7.60;6.90;;;;;;;13.60;100.00;102722.56;2050372;28;27143;-78
2022/08/10 02:53:32;;;;;;;8.60;6.85;;;;;;;13.52;100.00;102722.59;2046166;28;34362;-78
2022/08/10 02:54:58;;;;;;;11.55;7.80;;;;;;;13.57;100.00;102722.59;2047125;28;30631;-77
2022/08/10 02:56:15;;;;;;;9.45;6.97;;;;;;;13.54;100.00;102717.22;2046195;28;26422;-77
2022/08/10 02:57:27;;;;;;;8.05;7.25;;;;;;;13.51;100.00;102723.53;2047188;28;20086;-78
2022/08/10 02:58:41;;;;;;;14.07;8.15;;;;;;;13.52;100.00;102719.03;2046780;28;29447;-78
2022/08/10 02:59:53;;;;;;;9.10;8.10;;;;;;;13.56;100.00;102716.28;2040748;28;25483;-78
2022/08/10 03:00:58;;;;;;;10.80;7.05;;;;;;;13.52;100.00;102716.34;2041697;28;30756;-78
2022/08/10 03:02:04;;;;;;;8.73;7.40;;;;;;;13.51;100.00;102717.25;2038824;28;38075;-78
2022/08/10 03:03:13;;;;;;;9.65;7.88;;;;;;;13.50;100.00;102721.72;2046801;28;34633;-78
2022/08/10 03:04:36;;;;;;;9.90;7.65;;;;;;;13.51;100.00;102718.16;2046291;28;31719;-78
2022/08/10 03:06:04;;;;;;;10.00;6.88;;;;;;;13.51;100.00;102717.25;2044799;28;26165;-78
2022/08/10 03:07:11;;;;;;;11.43;7.88;;;;;;;13.48;100.00;102711.91;2044748;28;20103;-78
2022/08/10 03:08:18;;;;;;;9.93;7.68;;;;;;;13.44;100.00;102715.50;2048665;28;20094;-78
2022/08/10 03:09:22;;;;;;;11.32;7.63;;;;;;;13.43;100.00;102720.00;2053290;28;31504;-78
2022/08/10 03:10:29;;;;;;;10.25;8.38;;;;;;;13.44;100.00;102715.50;2046419;28;23110;-78
2022/08/10 03:11:35;;;;;;;9.05;7.18;;;;;;;13.40;100.00;102717.31;2039723;28;30989;-76
2022/08/10 03:13:01;;;;;;;6.85;6.00;;;;;;;13.37;100.00;102720.03;2050938;28;20047;-78
2022/08/10 03:14:07;;;;;;;8.15;6.50;;;;;;;13.33;100.00;102727.22;2050941;28;25426;-78
2022/08/10 03:15:13;;;;;;;8.00;7.10;;;;;;;13.33;100.00;102720.94;2046609;28;24501;-78
2022/08/10 03:16:18;;;;;;;8.18;6.97;;;;;;;13.30;100.00;102719.13;2040542;28;21034;-78
2022/08/10 03:17:22;;;;;;;7.15;6.43;;;;;;;13.27;100.00;102716.44;2046574;28;25589;-77
2022/08/10 03:18:25;;;;;;;6.85;6.20;;;;;;;13.26;100.00;102721.84;2046316;28;25734;-78
2022/08/10 03:19:30;;;;;;;8.93;7.13;;;;;;;13.24;100.00;102718.28;2046538;28;24353;-78
2022/08/10 03:20:55;;;;;;;7.65;6.53;;;;;;;13.19;100.00;102718.31;2046316;28;20048;-78
2022/08/10 03:21:58;;;;;;;9.60;6.82;;;;;;;13.17;100.00;102712.94;2046695;28;31809;-78
2022/08/10 03:23:04;;;;;;;9.18;7.82;;;;;;;13.21;100.00;102713.81;2047711;28;25540;-78
2022/08/10 03:24:09;;;;;;;9.57;6.70;;;;;;;13.19;100.00;102712.94;2040943;28;29552;-78
2022/08/10 03:25:28;;;;;;;12.55;7.47;;;;;;;13.16;100.00;102721.00;2051350;28;20050;-78
2022/08/10 03:26:31;;;;;;;7.63;6.88;;;;;;;13.15;100.00;102711.13;2048338;28;20051;-79
2022/08/10 03:27:34;;;;;;;7.68;6.88;;;;;;;13.14;100.00;102712.06;2047713;28;24518;-79
2022/08/10 03:28:36;;;;;;;9.15;6.68;;;;;;;13.11;100.00;102717.44;2048099;28;20059;-79
2022/08/10 03:29:39;;;;;;;9.27;7.32;;;;;;;13.12;100.00;102716.56;2040187;28;30002;-79
2022/08/10 03:31:01;;;;;;;7.40;6.55;;;;;;;13.09;100.00;102717.44;2051139;28;20086;-79
2022/08/10 03:32:08;;;;;;;10.10;7.40;;;;;;;13.09;100.00;102705.81;2048260;28;20040;-77
2022/08/10 03:33:12;;;;;;;8.90;6.43;;;;;;;13.10;100.00;102704.88;2048355;28;22773;-78
2022/08/10 03:34:15;;;;;;;12.07;7.85;;;;;;;13.09;100.00;102714.75;2056213;28;24530;-78
2022/08/10 03:35:21;;;;;;;9.90;8.10;;;;;;;13.09;100.00;102714.75;2047227;28;31636;-78
2022/08/10 03:36:23;;;;;;;9.77;7.63;;;;;;;13.11;100.00;102709.38;2040655;28;37720;-78
2022/08/10 03:37:44;;;;;;;9.65;8.18;;;;;;;13.15;100.00;102705.75;2050621;28;30730;-78
2022/08/10 03:38:50;;;;;;;11.15;8.32;;;;;;;13.16;100.00;102708.44;2053545;28;20868;-78
2022/08/10 03:39:54;;;;;;;11.63;8.60;;;;;;;13.20;100.00;102703.94;2048267;28;26834;-78
2022/08/10 03:41:00;;;;;;;8.95;7.63;;;;;;;13.21;100.00;102710.22;2048216;28;22462;-78
2022/08/10 03:42:04;;;;;;;12.07;8.98;;;;;;;13.26;100.00;102703.94;2040846;28;20867;-78
2022/08/10 03:43:10;;;;;;;17.10;9.13;;;;;;;13.27;100.00;102705.69;2048802;28;20075;-78
2022/08/10 03:44:23;;;;;;;11.02;8.65;;;;;;;13.23;100.00;102705.75;2047564;28;28130;-78
2022/08/10 03:45:27;;;;;;;10.43;8.45;;;;;;;13.28;100.00;102701.19;2049982;28;22821;-78
2022/08/10 03:46:30;;;;;;;9.80;7.75;;;;;;;13.25;100.00;102707.50;2053737;28;31292;-78
2022/08/10 03:47:38;;;;;;;9.02;8.02;;;;;;;13.24;100.00;102703.00;2048324;28;20866;-78
2022/08/10 03:48:42;;;;;;;10.63;7.35;;;;;;;13.22;100.00;102699.44;2047759;28;32006;-78
2022/08/10 03:49:49;;;;;;;7.97;7.10;;;;;;;13.21;100.00;102702.13;2041419;28;20106;-77
2022/08/10 03:50:54;;;;;;;10.18;7.22;;;;;;;13.19;100.00;102704.88;2048600;28;23299;-78
2022/08/10 03:51:58;;;;;;;8.45;6.97;;;;;;;13.18;100.00;102703.06;2047352;28;26985;-78
2022/08/10 03:53:01;;;;;;;7.40;6.60;;;;;;;13.14;100.00;102714.75;2048932;28;20122;-78
2022/08/10 03:54:03;;;;;;;9.93;6.25;;;;;;;13.10;100.00;102702.19;2047321;28;23423;-78
2022/08/10 03:55:09;;;;;;;7.70;6.90;;;;;;;13.09;100.00;102711.19;2048709;28;23671;-78
2022/08/10 03:56:11;;;;;;;7.20;6.05;;;;;;;13.07;100.00;102710.31;2054324;28;28400;-78
2022/08/10 03:57:31;;;;;;;11.10;7.30;;;;;;;13.04;100.00;102707.63;2048575;28;33155;-79
2022/08/10 03:58:33;;;;;;;7.57;6.25;;;;;;;13.01;100.00;102702.25;2048494;28;20039;-78
2022/08/10 03:59:37;;;;;;;7.53;6.13;;;;;;;13.00;100.00;102709.44;2047129;28;40452;-78
2022/08/10 04:00:39;;;;;;;6.72;6.07;;;;;;;12.96;100.00;102704.97;2039755;28;23387;-78
2022/08/10 04:01:44;;;;;;;8.38;6.10;;;;;;;12.94;100.00;102698.72;2039915;28;23124;-78
2022/08/10 04:03:07;;;;;;;6.55;5.85;;;;;;;12.93;100.00;102697.78;2043687;28;20035;-78
2022/08/10 04:04:09;;;;;;;6.63;5.65;;;;;;;12.95;100.00;102705.84;2047840;28;30167;-78
2022/08/10 04:05:15;;;;;;;8.15;6.70;;;;;;;12.93;100.00;102703.16;2047730;28;38082;-78
2022/08/10 04:06:17;;;;;;;7.88;6.03;;;;;;;12.93;100.00;102703.16;2047496;28;22809;-78
2022/08/10 04:07:22;;;;;;;10.00;7.30;;;;;;;12.95;100.00;102703.16;2040409;28;21189;-78
2022/08/10 04:08:24;;;;;;;7.63;5.88;;;;;;;12.95;100.00;102705.84;2047134;28;33284;-78
2022/08/10 04:09:32;;;;;;;6.82;5.85;;;;;;;12.96;100.00;102703.16;2047631;28;29074;-78
2022/08/10 04:10:44;;;;;;;6.90;5.55;;;;;;;12.98;100.00;102701.34;2047646;28;27303;-78
2022/08/10 04:11:46;;;;;;;8.63;5.68;;;;;;;12.99;100.00;102703.16;2048277;28;27216;-78
2022/08/10 04:12:47;;;;;;;7.95;5.90;;;;;;;13.00;100.00;102706.75;2047235;28;28776;-79
2022/08/10 04:13:49;;;;;;;8.30;5.70;;;;;;;13.02;100.00;102704.03;2040065;28;27246;-79
2022/08/10 04:14:53;;;;;;;6.68;5.97;;;;;;;13.05;100.00;102706.72;2047237;28;27977;-79
2022/08/10 04:15:55;;;;;;;6.30;5.70;;;;;;;13.09;100.00;102703.13;2048424;28;22479;-79
2022/08/10 04:16:57;;;;;;;7.55;5.90;;;;;;;13.09;100.00;102709.38;2048078;28;28243;-79
2022/08/10 04:17:59;;;;;;;8.57;6.07;;;;;;;13.11;100.00;102701.31;2048400;28;28436;-79
2022/08/10 04:19:07;;;;;;;6.55;4.95;;;;;;;13.14;100.00;102706.69;2047365;28;30441;-79
2022/08/10 04:20:28;;;;;;;6.72;5.43;;;;;;;13.17;100.00;102712.00;2047280;28;30358;-79
2022/08/10 04:21:38;;;;;;;5.88;5.28;;;;;;;13.20;100.00;102712.00;2048453;28;20046;-78
2022/08/10 04:22:42;;;;;;;6.80;5.95;;;;;;;13.25;100.00;102709.31;2039382;29;30373;-79
2022/08/10 04:23:49;;;;;;;7.35;5.32;;;;;;;13.29;100.00;102711.06;2033771;28;21649;-78
2022/08/10 04:25:01;;;;;;;6.80;5.47;;;;;;;13.36;100.00;102708.34;2040695;28;27615;-79
2022/08/10 04:26:03;;;;;;;6.47;5.25;;;;;;;13.42;100.00;102711.91;2041255;28;34161;-79
2022/08/10 04:27:05;;;;;;;6.15;4.93;;;;;;;13.50;100.00;102712.78;2049204;28;20141;-79
2022/08/10 04:28:10;;;;;;;6.13;5.53;;;;;;;13.56;100.00;102712.72;2054839;28;29283;-79
2022/08/10 04:29:16;;;;;;;5.63;4.53;;;;;;;13.66;100.00;102708.19;2047161;28;22919;-79
2022/08/10 04:30:18;;;;;;;5.00;4.13;;;;;;;13.77;100.00;102703.59;2046992;28;33360;-78
2022/08/10 04:31:23;;;;;;;7.78;5.10;;;;;;;13.97;100.00;102710.63;2046832;28;38048;-77
2022/08/10 04:32:30;;;;;;;5.95;4.72;;;;;;;14.26;100.00;102703.16;2040303;28;24044;-80
2022/08/10 04:33:40;;;;;;;5.78;5.00;;;;;;;14.69;100.00;102708.09;2048263;28;20044;-78
2022/08/10 04:34:44;;;;;;;6.80;5.38;;;;;;;15.08;100.00;102702.25;2053514;28;24262;-78
2022/08/10 04:35:47;;;;;;;4.47;4.07;;;;;;;15.46;100.00;102706.19;2038849;29;27652;-79
2022/08/10 04:36:56;;;;;;;6.00;3.85;;;;;;;15.84;98.46;102702.03;2039810;28;33695;-78
2022/08/10 04:38:01;;;;;;;5.20;3.70;;;;;;;16.18;95.99;102715.84;2047636;28;30059;-79
2022/08/10 04:39:03;;;;;;;3.40;3.10;;;;;;;16.48;93.91;102699.09;2047378;28;27037;-79
2022/08/10 04:40:05;;;;;;;3.42;3.13;;;;;;;16.72;92.12;102706.69;2047293;28;28602;-79
2022/08/10 04:41:27;;;;;;;4.97;3.03;;;;;;;16.90;90.37;102704.56;2047408;28;27640;-78
2022/08/10 04:42:30;;;;;;;3.38;3.08;;;;;;;17.01;88.93;102705.22;2042295;28;31031;-79
2022/08/10 04:43:32;;;;;;;3.65;3.28;;;;;;;16.98;86.67;102708.00;2047839;28;29138;-79
2022/08/10 04:44:36;;;;;;;3.58;3.15;;;;;;;17.12;86.75;102708.59;2047681;28;20046;-80
2022/08/10 04:45:42;;;;;;;3.75;2.53;;;;;;;17.17;85.20;102701.28;2046986;28;34873;-79
2022/08/10 04:46:51;;;;;;;6.70;3.20;;;;;;;17.35;84.71;102716.22;2048307;28;21716;-78
2022/08/10 04:47:59;;;;;;;3.65;3.25;;;;;;;17.69;83.16;102709.09;2048059;28;20051;-78
2022/08/10 04:49:04;;;;;;;3.72;3.42;;;;;;;17.91;82.15;102706.78;2047558;28;32767;-78
2022/08/10 04:50:06;;;;;;;3.13;2.90;;;;;;;18.30;79.89;102710.28;2047471;28;20150;-78
2022/08/10 04:51:15;;;;;;;3.58;3.17;;;;;;;18.38;77.45;102706.47;2047113;28;33179;-78
2022/08/10 04:52:24;;;;;;;3.70;3.08;;;;;;;18.64;78.46;102712.03;2047783;28;20122;-77
2022/08/10 04:53:26;;;;;;;3.80;3.22;;;;;;;19.05;76.96;102709.06;2048432;28;24236;-77
2022/08/10 04:54:28;;;;;;;2.90;2.60;;;;;;;18.96;73.39;102704.81;2047235;28;23535;-78
2022/08/10 04:55:30;;;;;;;4.40;2.58;;;;;;;19.46;75.26;102706.91;2047453;28;27877;-78
2022/08/10 04:56:35;;;;;;;2.78;2.55;;;;;;;19.19;73.36;102700.50;2047825;28;24412;-77
2022/08/10 04:57:36;;;;;;;3.55;2.97;;;;;;;19.48;73.03;102706.84;2048064;28;24110;-78
2022/08/10 04:58:38;;;;;;;3.42;3.08;;;;;;;19.34;71.47;102705.44;2047743;28;24033;-78
2022/08/10 04:59:40;;;;;;;4.95;2.90;;;;;;;19.24;72.79;102703.97;2047969;28;20182;-77
2022/08/10 05:00:42;;;;;;;4.35;2.88;;;;;;;19.35;72.74;102701.81;2046798;28;29323;-77
2022/08/10 05:01:43;;;;;;;2.90;2.67;;;;;;;19.17;71.55;102702.41;2047651;28;30983;-77
2022/08/10 05:03:08;;;;;;;2.70;2.28;;;;;;;19.13;72.11;102700.69;2048265;28;20162;-77
2022/08/10 05:04:09;;;;;;;4.30;2.67;;;;;;;19.14;73.08;102697.94;2047980;28;30014;-77
2022/08/10 05:05:31;;;;;;;4.20;2.63;;;;;;;18.98;73.08;102693.91;2048106;28;20067;-78
2022/08/10 05:06:33;;;;;;;5.38;2.60;;;;;;;19.05;73.06;102696.38;2047804;28;26268;-77
2022/08/10 05:07:35;;;;;;;3.33;3.08;;;;;;;19.13;73.09;102695.25;2039421;29;24841;-77
2022/08/10 05:08:44;;;;;;;3.00;2.70;;;;;;;19.33;72.77;102695.53;2040335;28;28725;-78
2022/08/10 05:09:47;;;;;;;2.65;2.45;;;;;;;19.41;71.32;102704.31;2039197;29;27859;-77
2022/08/10 05:11:03;;;;;;;3.75;2.50;;;;;;;19.74;69.45;102696.06;2041305;28;35665;-77
2022/08/10 05:12:07;;;;;;;5.78;2.60;;;;;;;19.81;69.49;102699.44;2055003;28;31670;-78
2022/08/10 05:13:08;;;;;;;3.42;2.50;;;;;;;19.85;68.44;102692.97;2046936;28;24066;-77
2022/08/10 05:14:10;;;;;;;2.72;2.10;;;;;;;20.30;68.81;102692.31;2047787;28;32207;-77
2022/08/10 05:15:16;;;;;;;3.35;2.10;;;;;;;20.37;66.56;102690.25;2047008;28;35727;-77
2022/08/10 05:16:18;;;;;;;2.75;2.30;;;;;;;20.45;67.60;102692.69;2048429;28;21067;-77
2022/08/10 05:17:22;;;;;;;3.50;2.10;;;;;;;20.71;65.80;102694.47;2047585;28;27415;-77
2022/08/10 05:18:23;;;;;;;2.58;2.38;;;;;;;20.72;64.63;102694.41;2048391;28;20051;-77
2022/08/10 05:19:25;;;;;;;2.83;2.10;;;;;;;21.11;64.81;102690.22;2047192;28;21020;-75